KCHO/CHO METAR and TAF weather

Enter ICAO airport designator
Station Type Date Time Source
KCHO METAR 2022/01/29 01:00 UTC NOAA

KCHO 290100Z 02005KT 1SM -SN BR BKN006 OVC009 01/M01 A2994 RMK AO2 P0000 T00061011


Station Type Date Time Source
KCHO Decoded METAR 2022/01/29 01:00 UTC NOAA

CHARLOTTESVILLE-ALBEMARLE, VA, United States (KCHO) 38-08N 078-27W 192M
Jan 28, 2022 - 08:00 PM EST / 2022.01.29 0100 UTC
Wind: from the NNE (020 degrees) at 6 MPH (5 KT):0
Visibility: 1 mile(s):0
Sky conditions: overcast
Weather: light snow; mist
Precipitation last hour: A trace
Temperature: 33.1 F (0.6 C)
Windchill: 28 F (-2 C):1
Dew Point: 30.0 F (-1.1 C)
Relative Humidity: 88%
Pressure (altimeter): 29.94 in. Hg (1013 hPa)
ob: KCHO 290100Z 02005KT 1SM -SN BR BKN006 OVC009 01/M01 A2994 RMK AO2 P0000 T00061011
cycle: 1

Station Type Date Time Source
KCHO TAF 2022/01/28 21:03 UTC NOAA

TAF
AMD KCHO 282100Z 2821/2918 05004KT 2SM -SN OVC005
FM290300 01006KT 3SM -SN OVC008
FM290800 36009KT P6SM OVC020
FM291000 35010G17KT P6SM BKN035

Example: see airport list